Time;durP1;ratioP1;P1;durP2;ratioP2;P2;SDS_P1;SDS_P2;PMS_P1;PMS_P2;Temp;Humidity;BMP_temperature;BMP_pressure;BME280_temperature;BME280_humidity;BME280_pressure;Samples;Min_cycle;Max_cycle;Signal;HPM_P1;HPM_P2
2022/11/03 00:02:17;;;;;;;28.90;11.60;;;;;;;6.27;75.21;99321.70;24508;1333;3026016;-70
2022/11/03 00:04:46;;;;;;;29.50;12.60;;;;;;;6.07;75.98;99328.34;24501;1327;3029026;-65
2022/11/03 00:07:20;;;;;;;24.70;11.50;;;;;;;5.90;76.85;99329.92;24564;1335;3026992;-69
2022/11/03 00:09:52;;;;;;;19.10;11.50;;;;;;;5.81;76.90;99332.19;24524;1333;3052962;-69
2022/11/03 00:12:21;;;;;;;23.70;11.50;;;;;;;5.72;77.09;99328.44;24534;1332;3027499;-69
2022/11/03 00:14:50;;;;;;;19.60;8.90;;;;;;;5.69;77.22;99336.19;24481;1324;3050913;-67
2022/11/03 00:17:20;;;;;;;17.10;8.70;;;;;;;6.27;75.81;99332.34;24525;1333;3028466;-65
2022/11/03 00:19:49;;;;;;;22.70;9.70;;;;;;;6.74;73.33;99332.98;24500;1333;3028390;-68
2022/11/03 00:22:18;;;;;;;20.00;10.50;;;;;;;6.72;72.65;99338.46;24479;1332;3050553;-64
2022/11/03 00:24:47;;;;;;;20.20;10.90;;;;;;;6.60;73.00;99335.69;24516;1333;3027391;-63
2022/11/03 00:27:16;;;;;;;24.60;11.40;;;;;;;6.29;73.68;99344.92;24533;1332;3053459;-63
2022/11/03 00:29:45;;;;;;;23.50;11.80;;;;;;;6.06;74.51;99345.40;24486;1326;3028677;-64
2022/11/03 00:32:14;;;;;;;24.90;11.30;;;;;;;6.00;74.30;99338.36;24577;1332;3052700;-63
2022/11/03 00:34:43;;;;;;;21.70;10.10;;;;;;;5.95;74.87;99343.29;24477;1327;3028580;-68
2022/11/03 00:37:11;;;;;;;24.90;10.70;;;;;;;5.89;74.67;99341.96;24565;1332;3055813;-63
2022/11/03 00:39:41;;;;;;;19.80;10.40;;;;;;;5.83;74.82;99341.34;24541;1332;3028560;-62
2022/11/03 00:42:09;;;;;;;19.20;9.80;;;;;;;5.76;75.10;99342.16;24576;1332;3050787;-65
2022/11/03 00:44:38;;;;;;;20.30;10.70;;;;;;;5.65;74.79;99345.24;24556;1333;3028155;-68
2022/11/03 00:47:08;;;;;;;25.60;11.30;;;;;;;5.55;75.08;99343.73;24554;1332;3069362;-66
2022/11/03 00:49:37;;;;;;;20.70;10.80;;;;;;;5.45;75.59;99348.69;24466;1326;3028549;-67
2022/11/03 00:52:06;;;;;;;14.00;7.60;;;;;;;5.39;75.72;99352.39;24542;1325;3049070;-70
2022/11/03 00:54:35;;;;;;;20.20;8.00;;;;;;;5.91;74.51;99354.39;24565;1324;3028923;-68
2022/11/03 00:57:04;;;;;;;17.10;8.30;;;;;;;6.29;71.69;99357.79;24486;1337;3052285;-71
2022/11/03 00:59:33;;;;;;;17.50;8.20;;;;;;;6.37;70.49;99358.66;24564;1332;3025184;-68
2022/11/03 01:02:02;;;;;;;19.50;8.70;;;;;;;6.26;70.19;99359.31;24503;1333;3051550;-65
2022/11/03 01:07:20;;;;;;;19.10;8.30;;;;;;;5.99;70.19;99367.27;24523;1322;3053574;-68
2022/11/03 01:09:48;;;;;;;18.90;9.20;;;;;;;6.00;70.07;99363.23;24511;1333;3027331;-65
2022/11/03 01:12:18;;;;;;;16.20;8.50;;;;;;;5.93;70.01;99367.35;24551;1330;3027091;-68
2022/11/03 01:14:51;;;;;;;14.80;7.40;;;;;;;5.86;68.98;99367.95;24529;1333;3052646;-67
2022/11/03 01:17:26;;;;;;;17.50;8.40;;;;;;;5.83;68.55;99364.98;24536;1332;3026591;-67
2022/11/03 01:19:55;;;;;;;15.50;7.70;;;;;;;5.74;68.11;99367.61;24604;1331;3026355;-64
2022/11/03 01:22:25;;;;;;;20.70;9.10;;;;;;;5.69;68.37;99366.95;24465;1333;3029374;-67
2022/11/03 01:24:54;;;;;;;17.00;8.60;;;;;;;5.54;69.23;99365.14;24523;1325;3029052;-66
2022/11/03 01:27:23;;;;;;;18.50;9.50;;;;;;;5.48;69.44;99363.14;24455;1332;3053278;-67
2022/11/03 01:29:52;;;;;;;24.50;11.00;;;;;;;5.38;70.48;99366.16;24515;1324;3029390;-68
2022/11/03 01:32:22;;;;;;;24.40;10.30;;;;;;;5.27;71.18;99366.62;24492;1333;3053114;-65
2022/11/03 01:34:51;;;;;;;22.40;11.10;;;;;;;5.22;71.30;99368.36;24471;1333;3027245;-65
2022/11/03 01:37:24;;;;;;;37.00;14.60;;;;;;;5.16;72.79;99372.23;24543;1338;3053969;-66
2022/11/03 01:39:53;;;;;;;33.50;13.80;;;;;;;5.01;73.34;99368.16;24458;1332;3028919;-67
2022/11/03 01:42:22;;;;;;;33.50;12.60;;;;;;;5.03;72.28;99369.25;24551;1333;3026335;-68
2022/11/03 01:44:51;;;;;;;26.30;11.10;;;;;;;5.06;71.79;99370.03;24560;1331;3054292;-69
2022/11/03 01:47:23;;;;;;;27.30;11.60;;;;;;;5.12;71.04;99372.05;24531;1324;3027218;-69
2022/11/03 01:49:52;;;;;;;22.50;9.90;;;;;;;5.19;69.61;99376.97;24526;1326;3052318;-67
2022/11/03 01:52:29;;;;;;;21.60;10.50;;;;;;;5.21;69.52;99374.65;24582;1316;3026033;-69
2022/11/03 01:55:01;;;;;;;19.80;8.90;;;;;;;5.22;68.85;99374.61;24523;1329;3057689;-66
2022/11/03 01:57:36;;;;;;;23.90;10.80;;;;;;;5.15;69.32;99384.94;24545;1324;3026284;-66
2022/11/03 02:00:06;;;;;;;25.50;11.10;;;;;;;5.08;70.04;99390.09;24556;1331;3052974;-69
2022/11/03 02:02:42;;;;;;;25.90;10.80;;;;;;;5.01;69.96;99393.45;24521;1330;3051053;-67
2022/11/03 02:05:11;;;;;;;21.60;9.70;;;;;;;4.96;70.69;99396.28;24563;1336;3027742;-68
2022/11/03 02:07:43;;;;;;;24.00;10.70;;;;;;;4.91;70.53;99395.44;24546;1334;3054207;-70
2022/11/03 02:10:12;;;;;;;22.00;10.30;;;;;;;4.89;71.07;99393.45;24506;1331;3026381;-68
2022/11/03 02:13:31;;;;;;;26.90;10.90;;;;;;;4.85;71.65;99395.50;24570;1321;3052208;-69
2022/11/03 02:16:00;;;;;;;27.60;11.00;;;;;;;4.75;72.23;99397.42;24495;1338;3027711;-67
2022/11/03 02:18:31;;;;;;;26.70;11.60;;;;;;;4.73;72.02;99403.05;24481;1338;3026562;-69
2022/11/03 02:21:05;;;;;;;25.90;11.90;;;;;;;4.69;72.71;99399.41;24507;1337;3029128;-65
2022/11/03 02:23:42;;;;;;;15.60;7.90;;;;;;;4.66;73.15;99402.46;24521;1329;3056937;-68
2022/11/03 02:26:11;;;;;;;13.90;7.40;;;;;;;5.31;71.82;99400.80;24565;1334;3052721;-68
2022/11/03 02:28:41;;;;;;;19.80;9.30;;;;;;;5.85;69.89;99402.63;24501;1342;3028198;-67
2022/11/03 02:31:15;;;;;;;20.70;10.20;;;;;;;5.79;68.79;99405.10;24569;1339;3027560;-71
2022/11/03 02:34:06;;;;;;;21.50;10.80;;;;;;;5.50;69.82;99405.27;24540;1325;3052891;-66
2022/11/03 02:36:45;;;;;;;23.50;10.50;;;;;;;5.39;70.27;99407.79;24564;1334;3051803;-65
2022/11/03 02:39:22;;;;;;;27.70;12.50;;;;;;;5.22;70.92;99413.00;24518;1329;3052029;-65
2022/11/03 02:41:55;;;;;;;32.50;11.60;;;;;;;4.99;71.99;99419.94;24490;1336;3055070;-67
2022/11/03 02:44:24;;;;;;;25.20;12.10;;;;;;;4.78;72.81;99419.53;24520;1335;3027697;-67
2022/11/03 02:46:56;;;;;;;24.30;11.80;;;;;;;4.64;73.59;99422.66;24513;1334;3025193;-67
2022/11/03 02:49:26;;;;;;;21.90;10.90;;;;;;;4.52;73.73;99417.02;24569;1335;3028259;-66
2022/11/03 02:52:02;;;;;;;29.00;11.60;;;;;;;4.42;74.00;99425.20;24528;1330;3025964;-69
2022/11/03 02:54:37;;;;;;;24.30;11.40;;;;;;;4.33;74.24;99424.81;24517;1335;3051371;-65
2022/11/03 02:57:16;;;;;;;25.70;11.20;;;;;;;4.27;74.20;99429.19;24491;1339;3054738;-68
2022/11/03 03:00:05;;;;;;;23.60;11.30;;;;;;;4.23;74.51;99427.27;24527;1331;3052131;-67
2022/11/03 03:02:46;;;;;;;27.00;12.20;;;;;;;4.13;74.55;99421.34;24507;1333;3053368;-69
2022/11/03 03:05:15;;;;;;;28.50;11.60;;;;;;;4.06;74.57;99425.39;24502;1334;3050589;-67
2022/11/03 03:07:45;;;;;;;26.10;12.50;;;;;;;4.04;74.67;99423.39;24528;1333;3028427;-68
2022/11/03 03:10:20;;;;;;;25.90;13.10;;;;;;;4.06;74.38;99419.69;24569;1327;3052522;-66
2022/11/03 03:12:53;;;;;;;17.30;7.30;;;;;;;4.11;74.02;99413.79;24549;1339;3049895;-69
2022/11/03 03:15:43;;;;;;;17.80;8.20;;;;;;;4.72;72.36;99412.45;24510;1333;3070162;-66
2022/11/03 03:18:22;;;;;;;17.00;8.40;;;;;;;5.36;69.41;99413.98;24554;1340;3050143;-67
2022/11/03 03:20:55;;;;;;;21.30;10.30;;;;;;;5.38;69.05;99419.84;24558;1335;3056997;-65
2022/11/03 03:23:26;;;;;;;19.80;10.30;;;;;;;5.15;69.35;99424.19;24526;1335;3053301;-67
2022/11/03 03:26:09;;;;;;;24.40;10.90;;;;;;;4.84;69.83;99425.39;24557;1337;3027364;-68
2022/11/03 03:28:54;;;;;;;21.00;10.70;;;;;;;4.74;70.66;99429.22;24532;1339;3050441;-64
2022/11/03 03:31:23;;;;;;;;;;;;;;;4.67;70.60;99428.27;24513;1338;3053310;-66
2022/11/03 03:33:54;;;;;;;20.10;9.70;;;;;;;4.52;71.09;99432.27;24561;1335;3026248;-67
2022/11/03 03:36:23;;;;;;;23.40;10.10;;;;;;;4.48;70.74;99430.86;24562;1327;3027495;-67
2022/11/03 03:38:59;;;;;;;21.60;9.50;;;;;;;4.43;70.67;99433.49;24506;1336;3026469;-67
2022/11/03 03:41:31;;;;;;;21.00;9.30;;;;;;;4.29;70.95;99441.59;24518;1338;3056270;-66
2022/11/03 03:44:04;;;;;;;17.30;8.40;;;;;;;4.25;71.04;99445.72;24540;1337;3027815;-67
2022/11/03 03:46:40;;;;;;;22.30;10.10;;;;;;;4.20;71.08;99449.54;24471;1339;3053209;-68
2022/11/03 03:49:08;;;;;;;20.30;9.90;;;;;;;4.15;71.39;99445.73;24512;1331;3052623;-69
2022/11/03 03:51:37;;;;;;;21.60;9.70;;;;;;;4.13;71.65;99446.33;24587;1315;3027578;-64
2022/11/03 03:54:06;;;;;;;17.70;9.20;;;;;;;4.16;71.35;99450.35;24554;1334;3052244;-66
2022/11/03 03:56:38;;;;;;;24.50;9.90;;;;;;;4.14;71.01;99451.50;24543;1326;3030181;-71
2022/11/03 03:59:07;;;;;;;19.30;9.40;;;;;;;4.17;71.00;99454.65;24460;1339;3051541;-69
2022/11/03 04:01:36;;;;;;;19.30;9.20;;;;;;;4.22;70.40;99462.29;24521;1340;3027790;-67
2022/11/03 04:04:05;;;;;;;16.30;8.70;;;;;;;4.34;70.02;99460.84;24552;1336;3025898;-67
2022/11/03 04:06:34;;;;;;;22.00;9.40;;;;;;;4.35;69.74;99454.55;24520;1329;3053088;-65
2022/11/03 04:09:03;;;;;;;31.80;10.80;;;;;;;4.32;70.18;99463.36;24522;1325;3027989;-68
2022/11/03 04:22:57;;;;;;;27.90;11.00;;;;;;;4.29;71.18;99459.81;24491;1325;3053642;-67
2022/11/03 04:25:26;;;;;;;28.70;12.00;;;;;;;4.28;70.98;99458.11;24523;1331;3028201;-69
2022/11/03 04:27:54;;;;;;;24.60;10.40;;;;;;;4.36;69.91;99453.13;24482;1334;3050048;-68
2022/11/03 04:30:25;;;;;;;20.20;9.80;;;;;;;4.39;68.85;99454.09;24504;1315;3027180;-67
2022/11/03 04:32:54;;;;;;;19.50;10.50;;;;;;;4.40;69.38;99456.80;24558;1338;3051877;-67
2022/11/03 04:35:25;;;;;;;22.60;9.90;;;;;;;4.43;69.41;99457.42;24512;1327;3028636;-67
2022/11/03 04:38:00;;;;;;;20.30;9.40;;;;;;;4.49;68.72;99457.86;24481;1334;3027506;-68
2022/11/03 04:40:29;;;;;;;21.20;9.90;;;;;;;4.61;68.31;99458.15;24492;1343;3049851;-68
2022/11/03 04:42:59;;;;;;;18.40;7.90;;;;;;;4.74;68.10;99460.64;24514;1339;3026299;-65
2022/11/03 04:45:29;;;;;;;15.90;8.10;;;;;;;4.85;67.43;99463.00;24484;1334;3027777;-69
2022/11/03 04:48:00;;;;;;;21.70;9.60;;;;;;;4.93;67.00;99461.66;24530;1333;3026003;-71
2022/11/03 04:50:29;;;;;;;18.10;8.00;;;;;;;4.99;66.09;99460.74;24532;1335;3027574;-66
2022/11/03 04:53:00;;;;;;;17.10;8.00;;;;;;;5.05;66.19;99460.34;24531;1333;3028643;-65
2022/11/03 04:55:29;;;;;;;16.60;8.00;;;;;;;5.09;65.85;99461.06;24542;1339;3028258;-64
2022/11/03 04:58:01;;;;;;;19.70;8.80;;;;;;;5.12;65.71;99463.39;24502;1341;3028138;-68
2022/11/03 05:00:30;;;;;;;17.60;7.60;;;;;;;5.11;65.57;99469.33;24532;1334;3027092;-65
2022/11/03 05:02:59;;;;;;;17.40;7.00;;;;;;;5.14;65.13;99473.01;24457;1334;3029738;-69
2022/11/03 05:05:28;;;;;;;16.60;7.80;;;;;;;5.18;64.93;99471.63;24481;1324;3026265;-67
2022/11/03 05:07:58;;;;;;;16.80;7.60;;;;;;;5.24;64.52;99471.59;24494;1339;3050337;-66
2022/11/03 05:10:27;;;;;;;15.50;6.70;;;;;;;5.28;64.35;99475.98;24597;1331;3029717;-70
2022/11/03 05:12:57;;;;;;;15.70;6.90;;;;;;;5.33;64.21;99480.27;24439;1335;3051282;-64
2022/11/03 05:15:30;;;;;;;18.70;8.20;;;;;;;5.33;64.20;99489.50;24521;1336;3026859;-68
2022/11/03 05:17:59;;;;;;;14.10;7.00;;;;;;;5.36;63.93;99491.30;24579;1333;3026333;-70
2022/11/03 05:20:50;;;;;;;14.90;7.30;;;;;;;5.42;64.13;99497.14;24485;1335;3027738;-69
2022/11/03 05:23:20;;;;;;;16.40;8.30;;;;;;;5.38;64.03;99504.43;24573;1334;3058212;-67
2022/11/03 05:25:52;;;;;;;16.70;7.70;;;;;;;5.36;64.16;99507.41;24583;1326;3027689;-67
2022/11/03 05:28:28;;;;;;;18.20;8.30;;;;;;;5.38;64.16;99511.18;24642;1332;3027018;-69
2022/11/03 05:30:57;;;;;;;18.30;7.90;;;;;;;5.47;63.76;99511.72;24527;1331;3052357;-66
2022/11/03 05:33:32;;;;;;;19.70;7.60;;;;;;;5.47;63.42;99508.58;24474;1327;3025814;-68
2022/11/03 05:36:10;;;;;;;20.80;8.00;;;;;;;5.46;63.40;99507.07;24608;1331;3049911;-69
2022/11/03 05:38:41;;;;;;;15.40;7.80;;;;;;;5.44;63.61;99513.73;24550;1329;3070424;-66
2022/11/03 05:41:24;;;;;;;17.80;7.70;;;;;;;5.54;63.69;99516.83;24555;1325;3026551;-65
2022/11/03 05:43:56;;;;;;;18.00;7.10;;;;;;;5.63;62.93;99518.76;24539;1339;3048375;-70
2022/11/03 05:46:27;;;;;;;17.00;7.40;;;;;;;5.70;62.76;99515.69;24522;1330;3029763;-68
2022/11/03 05:48:57;;;;;;;20.70;8.80;;;;;;;5.71;63.02;99519.45;24563;1333;3027628;-69
2022/11/03 05:51:33;;;;;;;19.00;8.40;;;;;;;5.71;63.39;99524.84;24570;1333;3026783;-65
2022/11/03 05:54:04;;;;;;;18.00;8.70;;;;;;;5.81;62.95;99522.35;24562;1332;3052234;-70
2022/11/03 05:56:33;;;;;;;16.70;8.70;;;;;;;6.03;62.95;99528.48;24564;1329;3025951;-68
2022/11/03 05:59:03;;;;;;;16.60;8.70;;;;;;;6.10;62.77;99532.38;24570;1333;3029020;-64
2022/11/03 06:01:41;;;;;;;15.50;7.80;;;;;;;6.22;62.48;99537.97;24507;1333;3053645;-69
2022/11/03 06:04:19;;;;;;;17.00;8.00;;;;;;;6.23;62.37;99539.13;24561;1335;3053984;-68
2022/11/03 06:06:53;;;;;;;16.40;8.00;;;;;;;6.36;62.54;99543.09;24507;1333;3052092;-68
2022/11/03 06:09:23;;;;;;;20.00;7.90;;;;;;;6.45;62.34;99542.20;24521;1332;3052786;-66
2022/11/03 06:11:56;;;;;;;19.90;8.50;;;;;;;6.52;62.20;99542.08;24529;1338;3027366;-68
2022/11/03 06:14:26;;;;;;;20.40;8.40;;;;;;;6.59;62.04;99541.96;24569;1332;3068737;-67
2022/11/03 06:16:59;;;;;;;19.00;8.40;;;;;;;6.70;62.26;99544.65;24536;1327;3027593;-70
2022/11/03 06:19:30;;;;;;;15.30;7.80;;;;;;;6.79;61.99;99544.56;24574;1327;3048891;-69
2022/11/03 06:22:23;;;;;;;17.60;8.50;;;;;;;6.86;62.05;99544.80;24569;1332;3027660;-71
2022/11/03 06:24:57;;;;;;;18.90;8.50;;;;;;;6.92;61.76;99542.46;24521;1339;3049450;-70
2022/11/03 06:27:28;;;;;;;16.30;8.00;;;;;;;7.02;61.95;99544.79;24539;1332;3025942;-66
2022/11/03 06:30:12;;;;;;;15.20;7.10;;;;;;;7.12;61.75;99548.34;24604;1333;3027680;-70
2022/11/03 06:32:41;;;;;;;16.80;7.50;;;;;;;7.23;60.57;99553.63;24514;1339;3054434;-68
2022/11/03 06:35:10;;;;;;;17.10;8.00;;;;;;;7.34;60.63;99552.42;24569;1333;3027282;-65
2022/11/03 06:37:39;;;;;;;17.20;7.70;;;;;;;7.43;60.08;99548.73;24581;1333;3051972;-67
2022/11/03 06:40:08;;;;;;;18.50;6.90;;;;;;;7.46;59.75;99553.60;24535;1329;3027813;-69
2022/11/03 06:42:38;;;;;;;18.90;9.50;;;;;;;7.51;59.73;99560.36;24585;1333;3055812;-67
2022/11/03 06:45:22;;;;;;;18.30;9.80;;;;;;;7.52;59.72;99562.39;24544;1326;3028902;-65
2022/11/03 06:47:52;;;;;;;14.20;8.60;;;;;;;7.48;59.91;99562.06;24533;1332;3054551;-68
2022/11/03 06:50:25;;;;;;;16.90;8.80;;;;;;;7.53;59.93;99563.20;24560;1326;3029551;-71
2022/11/03 06:52:55;;;;;;;21.30;9.20;;;;;;;7.55;60.05;99561.22;24616;1332;3029536;-65
2022/11/03 06:55:30;;;;;;;23.20;9.30;;;;;;;7.58;60.32;99554.65;24555;1337;3026771;-72
2022/11/03 06:58:07;;;;;;;18.80;9.70;;;;;;;7.66;59.55;99550.59;24518;1327;3069031;-67
2022/11/03 07:00:38;;;;;;;22.40;9.80;;;;;;;7.75;59.34;99555.23;24568;1332;3051721;-71
2022/11/03 07:03:29;;;;;;;17.40;9.70;;;;;;;7.79;58.72;99556.07;24569;1326;3027702;-72
2022/11/03 07:06:01;;;;;;;17.50;8.90;;;;;;;7.93;58.75;99551.05;24559;1332;3053016;-69
2022/11/03 07:08:34;;;;;;;21.00;9.50;;;;;;;7.98;58.22;99556.94;24553;1333;3026284;-67
2022/11/03 07:11:04;;;;;;;27.00;10.40;;;;;;;7.99;58.47;99557.55;24565;1325;3025582;-72
2022/11/03 07:13:33;;;;;;;23.70;10.90;;;;;;;7.95;58.82;99556.38;24554;1333;3030177;-68
2022/11/03 07:16:03;;;;;;;25.90;12.10;;;;;;;8.06;58.95;99559.47;24536;1333;3028803;-71
2022/11/03 07:18:43;;;;;;;24.80;12.10;;;;;;;8.15;58.80;99559.77;24530;1333;3025788;-66
2022/11/03 07:21:36;;;;;;;25.70;12.50;;;;;;;8.21;58.84;99558.44;24518;1325;3050862;-70
2022/11/03 07:24:22;;;;;;;25.50;10.60;;;;;;;8.25;58.43;99558.24;24538;1342;3050244;-68
2022/11/03 07:27:20;;;;;;;24.80;11.20;;;;;;;8.32;58.58;99557.02;24520;1326;3069941;-72
2022/11/03 07:29:49;;;;;;;20.90;11.20;;;;;;;8.44;58.34;99548.92;24577;1334;3050509;-65
2022/11/03 07:32:21;;;;;;;25.40;11.80;;;;;;;8.50;58.69;99549.48;24597;1333;3028558;-66
2022/11/03 07:35:00;;;;;;;25.50;12.20;;;;;;;8.56;58.44;99548.66;24590;1333;3026333;-66
2022/11/03 07:37:29;;;;;;;30.80;12.20;;;;;;;8.62;58.19;99542.08;24665;1339;3053188;-65
2022/11/03 07:39:59;;;;;;;24.80;11.80;;;;;;;8.68;58.24;99544.38;24641;1331;3026922;-66
2022/11/03 07:42:28;;;;;;;28.20;11.90;;;;;;;8.72;57.97;99546.98;24649;1325;3026099;-67
2022/11/03 07:45:25;;;;;;;34.30;13.80;;;;;;;8.83;57.94;99548.54;24510;1333;3054231;-69
2022/11/03 07:47:54;;;;;;;29.90;13.30;;;;;;;8.95;57.82;99547.38;24524;1333;3053747;-68
2022/11/03 07:50:22;;;;;;;27.00;12.30;;;;;;;9.01;57.61;99545.10;24530;1332;3027822;-67
2022/11/03 07:52:51;;;;;;;25.20;11.50;;;;;;;9.07;56.90;99548.33;24567;1332;3052033;-67
2022/11/03 07:55:20;;;;;;;19.30;10.10;;;;;;;9.26;57.04;99549.21;24488;1337;3027404;-65
2022/11/03 07:57:50;;;;;;;25.70;10.70;;;;;;;9.44;55.75;99551.74;24632;1331;3052131;-67
2022/11/03 08:00:21;;;;;;;20.00;9.60;;;;;;;9.57;54.97;99547.39;24551;1326;3027433;-67
2022/11/03 08:02:54;;;;;;;18.70;8.50;;;;;;;9.67;54.58;99543.66;25417;1333;3056759;-68
2022/11/03 08:05:22;;;;;;;20.30;8.50;;;;;;;9.76;53.43;99540.56;25373;1329;3026605;-68
2022/11/03 08:07:52;;;;;;;21.70;9.70;;;;;;;9.74;53.12;99537.48;25427;1325;3027838;-67
2022/11/03 08:10:21;;;;;;;22.00;8.80;;;;;;;9.83;53.21;99538.95;25398;1333;3027232;-72
2022/11/03 08:13:15;;;;;;;17.60;8.70;;;;;;;9.97;53.67;99544.79;25435;1323;3051743;-68
2022/11/03 08:15:44;;;;;;;16.60;7.00;;;;;;;10.12;53.41;99549.06;25452;1333;3028429;-64
2022/11/03 08:18:13;;;;;;;15.90;6.80;;;;;;;10.22;52.87;99554.55;25452;1331;3055990;-70
2022/11/03 08:20:42;;;;;;;15.20;6.80;;;;;;;10.30;52.95;99552.58;25459;1337;3026882;-67
2022/11/03 08:23:11;;;;;;;15.10;6.90;;;;;;;10.33;52.51;99554.46;25443;1333;3025773;-68
2022/11/03 08:25:41;;;;;;;14.20;7.00;;;;;;;10.46;52.40;99546.57;25439;1331;3056589;-72
2022/11/03 08:28:10;;;;;;;16.10;6.60;;;;;;;10.57;52.03;99547.48;25445;1331;3026437;-68
2022/11/03 08:30:39;;;;;;;13.00;7.30;;;;;;;10.60;52.15;99542.41;25419;1322;3026848;-68
2022/11/03 08:33:08;;;;;;;14.70;7.10;;;;;;;10.58;51.70;99541.49;25422;1334;3056682;-67
2022/11/03 08:35:37;;;;;;;18.80;7.20;;;;;;;10.70;52.69;99539.00;25429;1334;3025882;-67
2022/11/03 08:38:06;;;;;;;14.50;7.60;;;;;;;10.74;51.96;99542.45;25450;1331;3049947;-69
2022/11/03 08:40:35;;;;;;;14.60;7.40;;;;;;;10.72;52.00;99538.55;25451;1331;3027693;-69
2022/11/03 08:43:05;;;;;;;17.20;8.70;;;;;;;10.79;52.11;99538.32;25450;1324;3069275;-71
2022/11/03 08:45:34;;;;;;;17.60;9.30;;;;;;;10.83;51.58;99525.25;25463;1323;3026275;-69
2022/11/03 08:48:05;;;;;;;16.00;9.50;;;;;;;10.83;51.78;99523.90;25429;1331;3027315;-67
2022/11/03 08:50:34;;;;;;;16.70;9.40;;;;;;;10.84;51.82;99528.55;25427;1333;3028329;-67
2022/11/03 08:53:03;;;;;;;19.40;9.50;;;;;;;10.86;51.90;99529.66;25422;1333;3025792;-65
2022/11/03 08:55:32;;;;;;;18.10;9.30;;;;;;;10.99;52.01;99526.56;25416;1325;3056518;-66
2022/11/03 08:58:01;;;;;;;22.30;10.70;;;;;;;10.91;51.66;99524.26;25418;1333;3026237;-70
2022/11/03 09:00:32;;;;;;;19.20;10.60;;;;;;;10.88;51.70;99524.60;25428;1325;3026008;-70
2022/11/03 09:03:01;;;;;;;22.60;11.90;;;;;;;10.86;51.87;99516.19;25394;1326;3027806;-68
2022/11/03 09:05:30;;;;;;;20.40;11.50;;;;;;;10.94;52.17;99519.55;25431;1333;3052308;-66
2022/11/03 09:07:59;;;;;;;25.60;12.80;;;;;;;10.90;53.02;99523.82;25410;1333;3027777;-68
2022/11/03 09:10:28;;;;;;;23.60;12.40;;;;;;;10.97;53.05;99527.08;25410;1333;3056449;-69
2022/11/03 09:12:57;;;;;;;23.00;12.90;;;;;;;10.96;52.94;99532.23;25421;1326;3026280;-67
2022/11/03 09:15:26;;;;;;;17.00;9.90;;;;;;;10.92;53.36;99525.73;25450;1327;3051066;-68
2022/11/03 09:17:57;;;;;;;20.80;10.10;;;;;;;10.83;52.90;99530.36;25438;1337;3027182;-70
2022/11/03 09:20:25;;;;;;;20.10;10.90;;;;;;;10.73;53.95;99531.29;25452;1325;3025870;-67
2022/11/03 09:22:54;;;;;;;20.00;9.80;;;;;;;10.68;53.65;99529.33;25462;1331;3050410;-67
2022/11/03 09:25:24;;;;;;;20.80;11.30;;;;;;;10.63;53.86;99531.23;25444;1329;3026290;-68
2022/11/03 09:27:53;;;;;;;16.90;9.70;;;;;;;10.65;53.75;99527.91;25442;1331;3027082;-67
2022/11/03 09:30:24;;;;;;;20.70;9.80;;;;;;;10.72;53.83;99530.33;25442;1331;3049316;-63
2022/11/03 09:32:53;;;;;;;23.50;11.30;;;;;;;10.70;53.33;99529.02;25414;1333;3027489;-65
2022/11/03 09:35:23;;;;;;;25.90;12.90;;;;;;;10.54;53.59;99534.38;25405;1329;3026184;-68
2022/11/03 09:41:08;;;;;;;36.60;16.00;;;;;;;10.71;53.45;99531.94;31020;1334;3013012;-67
2022/11/03 09:43:37;;;;;;;25.50;12.60;;;;;;;10.73;52.96;99524.30;24437;1337;3028936;-68
2022/11/03 09:46:06;;;;;;;26.60;12.10;;;;;;;10.49;52.94;99524.67;24526;1330;3025940;-71
2022/11/03 09:48:35;;;;;;;19.20;9.70;;;;;;;10.39;52.83;99526.11;24568;1326;3050446;-71
2022/11/03 11:46:32;;;;;;;16.40;7.30;;;;;;;13.05;49.76;99406.77;30844;1330;3013135;-64
2022/11/03 11:49:15;;;;;;;13.10;6.60;;;;;;;13.15;49.60;99408.88;24469;1329;3069000;-65
2022/11/03 11:51:44;;;;;;;11.10;5.60;;;;;;;13.12;49.25;99411.58;24707;1334;3052433;-62
2022/11/03 11:54:16;;;;;;;12.20;5.20;;;;;;;13.17;49.04;99411.94;24546;1327;3026362;-60
2022/11/03 11:56:47;;;;;;;10.80;5.10;;;;;;;13.18;48.94;99412.89;24442;1334;3069149;-64
2022/11/03 11:59:21;;;;;;;7.70;4.70;;;;;;;13.07;48.99;99408.73;24404;1323;3035861;-61
2022/11/03 12:01:51;;;;;;;10.50;5.00;;;;;;;12.97;49.78;99408.20;24528;1319;3049257;-66
2022/11/03 12:04:30;;;;;;;11.20;4.80;;;;;;;12.95;49.60;99408.92;24749;1324;3025783;-67
2022/11/03 12:06:59;;;;;;;9.70;5.40;;;;;;;13.00;49.62;99407.11;24482;1341;3050641;-66
2022/11/03 12:09:29;;;;;;;13.30;6.30;;;;;;;12.97;49.80;99412.81;24519;1331;3028845;-66
2022/11/03 12:11:59;;;;;;;10.10;4.70;;;;;;;12.85;50.13;99420.88;24477;1323;3028545;-63
2022/11/03 12:14:36;;;;;;;7.20;3.10;;;;;;;12.73;50.06;99417.80;24560;1331;3027861;-62
2022/11/03 12:17:17;;;;;;;9.70;3.70;;;;;;;12.83;50.27;99420.64;24466;1334;3052051;-64
2022/11/03 12:19:50;;;;;;;10.20;3.70;;;;;;;12.67;50.21;99417.00;24510;1337;3052288;-66
2022/11/03 12:22:23;;;;;;;10.50;3.90;;;;;;;12.49;50.81;99414.73;24518;1337;3049208;-62
2022/11/03 12:24:56;;;;;;;10.30;4.40;;;;;;;12.36;51.17;99412.71;24445;1334;3027434;-63
2022/11/03 12:27:25;;;;;;;13.70;5.40;;;;;;;12.31;51.80;99414.27;24516;1331;3028211;-64
2022/11/03 12:30:04;;;;;;;15.80;5.00;;;;;;;12.29;52.17;99413.70;24491;1334;3028201;-64
2022/11/03 12:32:33;;;;;;;9.30;4.70;;;;;;;12.32;52.05;99412.55;24529;1329;3053686;-64
2022/11/03 12:35:07;;;;;;;21.80;6.30;;;;;;;12.30;52.27;99406.94;24492;1331;3029749;-63
2022/11/03 12:37:36;;;;;;;18.80;6.20;;;;;;;12.20;52.67;99399.52;24485;1324;3052096;-66
2022/11/03 12:40:05;;;;;;;18.70;6.50;;;;;;;12.07;53.18;99399.71;24561;1325;3028846;-63
2022/11/03 12:42:35;;;;;;;20.40;6.80;;;;;;;12.00;53.49;99403.85;24556;1331;3053582;-64
2022/11/03 12:45:06;;;;;;;20.70;7.50;;;;;;;11.95;53.99;99407.50;24466;1337;3028731;-65
2022/11/03 12:47:35;;;;;;;17.70;6.70;;;;;;;11.93;54.28;99408.48;24579;1337;3053947;-66
2022/11/03 12:50:05;;;;;;;16.80;5.80;;;;;;;11.85;54.51;99406.95;24484;1329;3024765;-60
2022/11/03 12:52:34;;;;;;;36.60;11.30;;;;;;;11.91;54.47;99403.92;24512;1334;3058486;-62
2022/11/03 12:55:03;;;;;;;37.90;9.80;;;;;;;11.94;54.71;99402.00;24651;1333;3027517;-62
2022/11/03 12:57:33;;;;;;;25.20;10.00;;;;;;;11.92;54.99;99399.59;24511;1337;3050552;-66
2022/11/03 13:00:04;;;;;;;21.30;7.90;;;;;;;11.95;54.48;99401.38;24456;1334;3027007;-66
2022/11/03 13:02:33;;;;;;;19.80;8.70;;;;;;;11.92;53.77;99402.28;24515;1330;3029436;-64
2022/11/03 13:05:04;;;;;;;19.80;9.10;;;;;;;11.86;53.95;99404.23;24568;1341;3028315;-67
2022/11/03 13:07:33;;;;;;;17.70;8.30;;;;;;;11.84;54.16;99402.25;24493;1324;3027057;-65
2022/11/03 13:10:03;;;;;;;21.60;8.70;;;;;;;11.81;54.21;99402.85;24475;1334;3029518;-67
2022/11/03 13:12:37;;;;;;;18.90;9.10;;;;;;;11.76;54.41;99401.23;24530;1330;3025920;-63
2022/11/03 13:15:09;;;;;;;20.40;9.00;;;;;;;11.75;54.56;99398.48;24483;1332;3029751;-66
2022/11/03 13:17:39;;;;;;;18.10;8.40;;;;;;;11.74;54.58;99396.77;24537;1331;3027872;-66
2022/11/03 13:20:09;;;;;;;20.40;9.30;;;;;;;11.72;54.74;99396.77;24486;1327;3026560;-68
2022/11/03 13:22:39;;;;;;;22.80;10.20;;;;;;;11.68;54.54;99396.47;24523;1331;3025456;-64
2022/11/03 13:25:08;;;;;;;31.00;12.70;;;;;;;11.65;55.21;99397.94;24495;1329;3027649;-66
2022/11/03 13:27:38;;;;;;;33.90;15.50;;;;;;;11.63;55.09;99400.70;24509;1340;3057047;-63
2022/11/03 13:30:07;;;;;;;37.80;16.90;;;;;;;11.64;54.97;99398.16;24547;1333;3029803;-65
2022/11/03 13:32:37;;;;;;;34.20;15.20;;;;;;;11.50;55.24;99398.17;24564;1329;3028245;-69
2022/11/03 13:35:07;;;;;;;36.30;15.50;;;;;;;11.42;55.82;99402.73;24485;1333;3029151;-67
2022/11/03 13:37:37;;;;;;;39.10;16.80;;;;;;;11.39;55.73;99401.54;24538;1339;3028162;-62
2022/11/03 13:40:07;;;;;;;31.40;13.30;;;;;;;11.36;55.67;99398.95;24481;1331;3030098;-64
2022/11/03 13:42:37;;;;;;;29.20;12.00;;;;;;;11.31;56.07;99398.19;24468;1337;3051126;-65
2022/11/03 13:45:07;;;;;;;22.50;10.50;;;;;;;11.30;55.93;99397.55;24488;1337;3029314;-65
2022/11/03 13:47:36;;;;;;;22.70;9.80;;;;;;;11.33;56.11;99395.09;24487;1337;3027361;-64